sensor_id;sensor_type;location;lat;lon;timestamp;pressure;altitude;pressure_sealevel;temperature
71081;BMP180;58740;50.672;18.690;2023-08-06T00:01:42;97849.20;;;19.40
71081;BMP180;58740;50.672;18.690;2023-08-06T00:04:10;97844.40;;;19.40
71081;BMP180;58740;50.672;18.690;2023-08-06T00:06:37;97846.40;;;19.44
71081;BMP180;58740;50.672;18.690;2023-08-06T00:09:05;97844.40;;;19.50
71081;BMP180;58740;50.672;18.690;2023-08-06T00:11:33;97848.60;;;19.40
71081;BMP180;58740;50.672;18.690;2023-08-06T00:14:01;97837.40;;;19.40
71081;BMP180;58740;50.672;18.690;2023-08-06T00:16:28;97827.80;;;19.40
71081;BMP180;58740;50.672;18.690;2023-08-06T00:18:56;97818.60;;;19.40
71081;BMP180;58740;50.672;18.690;2023-08-06T00:21:24;97812.60;;;19.40
71081;BMP180;58740;50.672;18.690;2023-08-06T00:23:51;97813.40;;;19.40
71081;BMP180;58740;50.672;18.690;2023-08-06T00:26:19;97798.40;;;19.40
71081;BMP180;58740;50.672;18.690;2023-08-06T00:28:47;97781.20;;;19.40
71081;BMP180;58740;50.672;18.690;2023-08-06T00:31:15;97779.00;;;19.40
71081;BMP180;58740;50.672;18.690;2023-08-06T00:33:43;97753.40;;;19.48
71081;BMP180;58740;50.672;18.690;2023-08-06T00:36:11;97721.60;;;19.44
71081;BMP180;58740;50.672;18.690;2023-08-06T00:38:38;97701.00;;;19.48
71081;BMP180;58740;50.672;18.690;2023-08-06T00:41:06;97704.80;;;19.50
71081;BMP180;58740;50.672;18.690;2023-08-06T00:43:34;97696.20;;;19.50
71081;BMP180;58740;50.672;18.690;2023-08-06T00:46:02;97693.00;;;19.50
71081;BMP180;58740;50.672;18.690;2023-08-06T00:48:30;97680.00;;;19.40
71081;BMP180;58740;50.672;18.690;2023-08-06T00:50:58;97657.20;;;19.40
71081;BMP180;58740;50.672;18.690;2023-08-06T00:53:26;97651.80;;;19.40
71081;BMP180;58740;50.672;18.690;2023-08-06T00:55:53;97649.40;;;19.40
71081;BMP180;58740;50.672;18.690;2023-08-06T00:58:21;97636.00;;;19.30
71081;BMP180;58740;50.672;18.690;2023-08-06T01:00:49;97630.60;;;19.32
71081;BMP180;58740;50.672;18.690;2023-08-06T01:03:17;97615.60;;;19.34
71081;BMP180;58740;50.672;18.690;2023-08-06T01:05:45;97596.00;;;19.32
71081;BMP180;58740;50.672;18.690;2023-08-06T01:11:26;97558.80;;;19.40
71081;BMP180;58740;50.672;18.690;2023-08-06T01:14:08;97532.40;;;19.40
71081;BMP180;58740;50.672;18.690;2023-08-06T01:16:40;97520.00;;;19.34
71081;BMP180;58740;50.672;18.690;2023-08-06T01:19:18;97492.80;;;19.30
71081;BMP180;58740;50.672;18.690;2023-08-06T01:21:46;97485.00;;;19.30
71081;BMP180;58740;50.672;18.690;2023-08-06T01:24:14;97497.20;;;19.30
71081;BMP180;58740;50.672;18.690;2023-08-06T01:26:58;97497.00;;;19.30
71081;BMP180;58740;50.672;18.690;2023-08-06T01:29:45;97545.00;;;19.30
71081;BMP180;58740;50.672;18.690;2023-08-06T01:32:16;97571.60;;;19.30
71081;BMP180;58740;50.672;18.690;2023-08-06T01:34:46;97513.20;;;19.40
71081;BMP180;58740;50.672;18.690;2023-08-06T01:37:15;97484.20;;;19.40
71081;BMP180;58740;50.672;18.690;2023-08-06T01:39:43;97445.60;;;19.40
71081;BMP180;58740;50.672;18.690;2023-08-06T01:42:11;97447.60;;;19.40
71081;BMP180;58740;50.672;18.690;2023-08-06T01:44:39;97450.60;;;19.40
71081;BMP180;58740;50.672;18.690;2023-08-06T01:47:06;97471.60;;;19.40
71081;BMP180;58740;50.672;18.690;2023-08-06T01:49:34;97473.40;;;19.40
71081;BMP180;58740;50.672;18.690;2023-08-06T01:52:02;97465.20;;;19.40
71081;BMP180;58740;50.672;18.690;2023-08-06T01:54:30;97453.60;;;19.40
71081;BMP180;58740;50.672;18.690;2023-08-06T01:56:57;97460.60;;;19.40
71081;BMP180;58740;50.672;18.690;2023-08-06T01:59:26;97452.80;;;19.40
71081;BMP180;58740;50.672;18.690;2023-08-06T02:01:53;97446.40;;;19.40
71081;BMP180;58740;50.672;18.690;2023-08-06T02:04:21;97436.00;;;19.40
71081;BMP180;58740;50.672;18.690;2023-08-06T02:06:49;97433.20;;;19.40
71081;BMP180;58740;50.672;18.690;2023-08-06T02:09:17;97441.20;;;19.40
71081;BMP180;58740;50.672;18.690;2023-08-06T02:11:45;97430.20;;;19.40
71081;BMP180;58740;50.672;18.690;2023-08-06T02:14:12;97435.00;;;19.40
71081;BMP180;58740;50.672;18.690;2023-08-06T02:16:40;97429.20;;;19.40
71081;BMP180;58740;50.672;18.690;2023-08-06T02:19:08;97436.60;;;19.40
71081;BMP180;58740;50.672;18.690;2023-08-06T02:21:36;97437.60;;;19.40
71081;BMP180;58740;50.672;18.690;2023-08-06T02:24:03;97445.40;;;19.38
71081;BMP180;58740;50.672;18.690;2023-08-06T02:26:31;97464.00;;;19.34
71081;BMP180;58740;50.672;18.690;2023-08-06T02:28:59;97490.80;;;19.38
71081;BMP180;58740;50.672;18.690;2023-08-06T02:31:27;97495.60;;;19.40
71081;BMP180;58740;50.672;18.690;2023-08-06T02:33:55;97491.00;;;19.42
71081;BMP180;58740;50.672;18.690;2023-08-06T02:36:22;97482.40;;;19.46
71081;BMP180;58740;50.672;18.690;2023-08-06T02:38:50;97486.80;;;19.46
71081;BMP180;58740;50.672;18.690;2023-08-06T02:41:18;97487.60;;;19.46
71081;BMP180;58740;50.672;18.690;2023-08-06T02:43:45;97479.60;;;19.50
71081;BMP180;58740;50.672;18.690;2023-08-06T02:46:13;97471.40;;;19.50
71081;BMP180;58740;50.672;18.690;2023-08-06T02:48:41;97463.20;;;19.50
71081;BMP180;58740;50.672;18.690;2023-08-06T02:51:08;97455.80;;;19.50
71081;BMP180;58740;50.672;18.690;2023-08-06T02:53:36;97452.20;;;19.50
71081;BMP180;58740;50.672;18.690;2023-08-06T02:56:04;97458.00;;;19.50
71081;BMP180;58740;50.672;18.690;2023-08-06T02:58:32;97453.80;;;19.50
71081;BMP180;58740;50.672;18.690;2023-08-06T03:01:05;97461.60;;;19.50
71081;BMP180;58740;50.672;18.690;2023-08-06T03:03:34;97467.40;;;19.54
71081;BMP180;58740;50.672;18.690;2023-08-06T03:06:02;97464.60;;;19.58
71081;BMP180;58740;50.672;18.690;2023-08-06T03:08:30;97456.40;;;19.60
71081;BMP180;58740;50.672;18.690;2023-08-06T03:10:58;97451.00;;;19.60
71081;BMP180;58740;50.672;18.690;2023-08-06T03:13:26;97437.40;;;19.58
71081;BMP180;58740;50.672;18.690;2023-08-06T03:15:59;97423.00;;;19.52
71081;BMP180;58740;50.672;18.690;2023-08-06T03:18:27;97419.80;;;19.60
71081;BMP180;58740;50.672;18.690;2023-08-06T03:20:55;97420.80;;;19.58
71081;BMP180;58740;50.672;18.690;2023-08-06T03:23:22;97420.20;;;19.60
71081;BMP180;58740;50.672;18.690;2023-08-06T03:25:50;97422.00;;;19.58
71081;BMP180;58740;50.672;18.690;2023-08-06T03:28:18;97418.60;;;19.60
71081;BMP180;58740;50.672;18.690;2023-08-06T03:30:46;97415.60;;;19.60
71081;BMP180;58740;50.672;18.690;2023-08-06T03:33:14;97419.00;;;19.60
71081;BMP180;58740;50.672;18.690;2023-08-06T03:35:41;97413.60;;;19.60
71081;BMP180;58740;50.672;18.690;2023-08-06T03:38:09;97405.60;;;19.68
71081;BMP180;58740;50.672;18.690;2023-08-06T03:40:37;97415.40;;;19.70
71081;BMP180;58740;50.672;18.690;2023-08-06T03:43:04;97415.40;;;19.70
71081;BMP180;58740;50.672;18.690;2023-08-06T03:45:32;97413.40;;;19.68
71081;BMP180;58740;50.672;18.690;2023-08-06T03:48:00;97405.20;;;19.70
71081;BMP180;58740;50.672;18.690;2023-08-06T03:50:28;97405.80;;;19.70
71081;BMP180;58740;50.672;18.690;2023-08-06T03:52:55;97405.00;;;19.70
71081;BMP180;58740;50.672;18.690;2023-08-06T03:55:23;97405.00;;;19.70
71081;BMP180;58740;50.672;18.690;2023-08-06T03:57:51;97404.60;;;19.70
71081;BMP180;58740;50.672;18.690;2023-08-06T04:00:19;97394.60;;;19.70
71081;BMP180;58740;50.672;18.690;2023-08-06T04:02:46;97393.40;;;19.72
71081;BMP180;58740;50.672;18.690;2023-08-06T04:05:15;97391.80;;;19.80
71081;BMP180;58740;50.672;18.690;2023-08-06T04:07:44;97396.80;;;19.80
71081;BMP180;58740;50.672;18.690;2023-08-06T04:10:12;97397.40;;;19.80
71081;BMP180;58740;50.672;18.690;2023-08-06T04:12:39;97389.20;;;19.80
71081;BMP180;58740;50.672;18.690;2023-08-06T04:15:08;97386.60;;;19.80
71081;BMP180;58740;50.672;18.690;2023-08-06T04:17:35;97383.20;;;19.80
71081;BMP180;58740;50.672;18.690;2023-08-06T04:20:04;97381.80;;;19.80
71081;BMP180;58740;50.672;18.690;2023-08-06T04:22:32;97371.20;;;19.80
71081;BMP180;58740;50.672;18.690;2023-08-06T04:25:00;97363.80;;;19.80
71081;BMP180;58740;50.672;18.690;2023-08-06T04:27:28;97361.00;;;19.80
71081;BMP180;58740;50.672;18.690;2023-08-06T04:29:55;97361.80;;;19.88
71081;BMP180;58740;50.672;18.690;2023-08-06T04:32:23;97366.00;;;19.80
71081;BMP180;58740;50.672;18.690;2023-08-06T04:34:52;97367.20;;;19.80
71081;BMP180;58740;50.672;18.690;2023-08-06T04:37:20;97369.00;;;19.80
71081;BMP180;58740;50.672;18.690;2023-08-06T04:39:47;97369.40;;;19.80
71081;BMP180;58740;50.672;18.690;2023-08-06T04:42:15;97366.80;;;19.80
71081;BMP180;58740;50.672;18.690;2023-08-06T04:44:43;97362.80;;;19.80
71081;BMP180;58740;50.672;18.690;2023-08-06T04:47:11;97354.60;;;19.80
71081;BMP180;58740;50.672;18.690;2023-08-06T04:49:38;97353.00;;;19.76
71081;BMP180;58740;50.672;18.690;2023-08-06T04:52:06;97352.40;;;19.70
71081;BMP180;58740;50.672;18.690;2023-08-06T04:54:34;97351.80;;;19.70
71081;BMP180;58740;50.672;18.690;2023-08-06T04:57:02;97356.80;;;19.72
71081;BMP180;58740;50.672;18.690;2023-08-06T04:59:29;97358.20;;;19.78
71081;BMP180;58740;50.672;18.690;2023-08-06T05:01:57;97358.80;;;19.80
71081;BMP180;58740;50.672;18.690;2023-08-06T05:04:25;97366.20;;;19.80
71081;BMP180;58740;50.672;18.690;2023-08-06T05:06:52;97367.60;;;19.80
71081;BMP180;58740;50.672;18.690;2023-08-06T05:09:20;97363.40;;;19.80
71081;BMP180;58740;50.672;18.690;2023-08-06T05:11:49;97356.00;;;19.80
71081;BMP180;58740;50.672;18.690;2023-08-06T05:14:17;97349.20;;;19.80
71081;BMP180;58740;50.672;18.690;2023-08-06T05:16:44;97339.20;;;19.84
71081;BMP180;58740;50.672;18.690;2023-08-06T05:19:12;97338.00;;;19.84
71081;BMP180;58740;50.672;18.690;2023-08-06T05:21:40;97335.00;;;19.80
71081;BMP180;58740;50.672;18.690;2023-08-06T05:24:08;97327.40;;;19.80
71081;BMP180;58740;50.672;18.690;2023-08-06T05:26:35;97322.40;;;19.80
71081;BMP180;58740;50.672;18.690;2023-08-06T05:29:03;97321.00;;;19.80
71081;BMP180;58740;50.672;18.690;2023-08-06T05:31:31;97319.00;;;19.80
71081;BMP180;58740;50.672;18.690;2023-08-06T05:33:59;97311.00;;;19.80
71081;BMP180;58740;50.672;18.690;2023-08-06T05:36:26;97311.00;;;19.80
71081;BMP180;58740;50.672;18.690;2023-08-06T05:38:56;97308.80;;;19.80
71081;BMP180;58740;50.672;18.690;2023-08-06T05:41:24;97303.80;;;19.80
71081;BMP180;58740;50.672;18.690;2023-08-06T05:43:52;97304.60;;;19.80
71081;BMP180;58740;50.672;18.690;2023-08-06T05:46:19;97297.40;;;19.78
71081;BMP180;58740;50.672;18.690;2023-08-06T05:48:47;97297.60;;;19.70
71081;BMP180;58740;50.672;18.690;2023-08-06T05:51:15;97301.00;;;19.70
71081;BMP180;58740;50.672;18.690;2023-08-06T05:53:43;97298.60;;;19.70
71081;BMP180;58740;50.672;18.690;2023-08-06T05:56:11;97293.20;;;19.70
71081;BMP180;58740;50.672;18.690;2023-08-06T05:58:39;97298.80;;;19.60
71081;BMP180;58740;50.672;18.690;2023-08-06T06:01:06;97298.60;;;19.60
71081;BMP180;58740;50.672;18.690;2023-08-06T06:03:34;97296.60;;;19.60
71081;BMP180;58740;50.672;18.690;2023-08-06T06:06:02;97296.00;;;19.60
71081;BMP180;58740;50.672;18.690;2023-08-06T06:08:29;97289.40;;;19.50
71081;BMP180;58740;50.672;18.690;2023-08-06T06:10:58;97288.80;;;19.50
71081;BMP180;58740;50.672;18.690;2023-08-06T06:13:25;97290.20;;;19.50
71081;BMP180;58740;50.672;18.690;2023-08-06T06:15:56;97282.00;;;19.40
71081;BMP180;58740;50.672;18.690;2023-08-06T06:18:24;97279.00;;;19.40
71081;BMP180;58740;50.672;18.690;2023-08-06T06:20:52;97270.20;;;19.30
71081;BMP180;58740;50.672;18.690;2023-08-06T06:23:20;97261.00;;;19.30
71081;BMP180;58740;50.672;18.690;2023-08-06T06:25:51;97258.20;;;19.30
71081;BMP180;58740;50.672;18.690;2023-08-06T06:28:21;97254.00;;;19.20
71081;BMP180;58740;50.672;18.690;2023-08-06T06:30:49;97257.20;;;19.20
71081;BMP180;58740;50.672;18.690;2023-08-06T06:33:17;97259.20;;;19.20
71081;BMP180;58740;50.672;18.690;2023-08-06T06:35:45;97247.80;;;19.20
71081;BMP180;58740;50.672;18.690;2023-08-06T06:38:12;97243.60;;;19.10
71081;BMP180;58740;50.672;18.690;2023-08-06T06:40:40;97237.80;;;19.10
71081;BMP180;58740;50.672;18.690;2023-08-06T06:43:08;97232.60;;;19.00
71081;BMP180;58740;50.672;18.690;2023-08-06T06:45:35;97227.60;;;19.00
71081;BMP180;58740;50.672;18.690;2023-08-06T06:48:03;97229.20;;;19.00
71081;BMP180;58740;50.672;18.690;2023-08-06T06:50:31;97231.00;;;19.00
71081;BMP180;58740;50.672;18.690;2023-08-06T06:52:59;97238.20;;;18.92
71081;BMP180;58740;50.672;18.690;2023-08-06T06:55:27;97234.00;;;18.90
71081;BMP180;58740;50.672;18.690;2023-08-06T06:57:55;97238.60;;;18.90
71081;BMP180;58740;50.672;18.690;2023-08-06T07:00:22;97225.00;;;18.80
71081;BMP180;58740;50.672;18.690;2023-08-06T07:02:50;97212.20;;;18.80
71081;BMP180;58740;50.672;18.690;2023-08-06T07:05:18;97212.00;;;18.80
71081;BMP180;58740;50.672;18.690;2023-08-06T07:07:46;97207.80;;;18.80
71081;BMP180;58740;50.672;18.690;2023-08-06T07:10:14;97209.80;;;18.80
71081;BMP180;58740;50.672;18.690;2023-08-06T07:12:41;97209.80;;;18.80
71081;BMP180;58740;50.672;18.690;2023-08-06T07:15:09;97201.80;;;18.70
71081;BMP180;58740;50.672;18.690;2023-08-06T07:17:37;97188.00;;;18.70
71081;BMP180;58740;50.672;18.690;2023-08-06T07:20:06;97184.80;;;18.64
71081;BMP180;58740;50.672;18.690;2023-08-06T07:22:34;97189.80;;;18.60
71081;BMP180;58740;50.672;18.690;2023-08-06T07:25:03;97193.40;;;18.60
71081;BMP180;58740;50.672;18.690;2023-08-06T07:27:32;97200.80;;;18.60
71081;BMP180;58740;50.672;18.690;2023-08-06T07:30:00;97193.00;;;18.50
71081;BMP180;58740;50.672;18.690;2023-08-06T07:32:28;97198.00;;;18.40
71081;BMP180;58740;50.672;18.690;2023-08-06T07:34:56;97186.60;;;18.40
71081;BMP180;58740;50.672;18.690;2023-08-06T07:37:27;97181.60;;;18.30
71081;BMP180;58740;50.672;18.690;2023-08-06T07:39:57;97161.60;;;18.30
71081;BMP180;58740;50.672;18.690;2023-08-06T07:42:25;97146.60;;;18.30
71081;BMP180;58740;50.672;18.690;2023-08-06T07:44:58;97139.60;;;18.20
71081;BMP180;58740;50.672;18.690;2023-08-06T07:47:26;97149.00;;;18.20
71081;BMP180;58740;50.672;18.690;2023-08-06T07:49:54;97158.20;;;18.20
71081;BMP180;58740;50.672;18.690;2023-08-06T07:52:21;97162.80;;;18.16
71081;BMP180;58740;50.672;18.690;2023-08-06T07:54:49;97171.00;;;18.10
71081;BMP180;58740;50.672;18.690;2023-08-06T07:57:17;97178.20;;;18.10
71081;BMP180;58740;50.672;18.690;2023-08-06T07:59:45;97188.20;;;18.10
71081;BMP180;58740;50.672;18.690;2023-08-06T08:02:12;97193.20;;;18.10
71081;BMP180;58740;50.672;18.690;2023-08-06T08:04:40;97190.20;;;18.10
71081;BMP180;58740;50.672;18.690;2023-08-06T08:07:10;97182.40;;;18.00
71081;BMP180;58740;50.672;18.690;2023-08-06T08:09:38;97172.60;;;18.00
71081;BMP180;58740;50.672;18.690;2023-08-06T08:12:06;97168.60;;;18.00
71081;BMP180;58740;50.672;18.690;2023-08-06T08:14:34;97152.80;;;17.90
71081;BMP180;58740;50.672;18.690;2023-08-06T08:17:04;97144.20;;;17.90
71081;BMP180;58740;50.672;18.690;2023-08-06T08:19:33;97143.00;;;17.80
71081;BMP180;58740;50.672;18.690;2023-08-06T08:22:02;97156.20;;;17.70
71081;BMP180;58740;50.672;18.690;2023-08-06T08:24:31;97165.20;;;17.70
71081;BMP180;58740;50.672;18.690;2023-08-06T08:26:58;97184.80;;;17.60
71081;BMP180;58740;50.672;18.690;2023-08-06T08:29:26;97219.40;;;17.60
71081;BMP180;58740;50.672;18.690;2023-08-06T08:31:54;97255.20;;;17.60
71081;BMP180;58740;50.672;18.690;2023-08-06T08:34:22;97284.80;;;17.60
71081;BMP180;58740;50.672;18.690;2023-08-06T08:36:50;97313.00;;;17.60
71081;BMP180;58740;50.672;18.690;2023-08-06T08:39:17;97308.80;;;17.60
71081;BMP180;58740;50.672;18.690;2023-08-06T08:41:45;97300.40;;;17.60
71081;BMP180;58740;50.672;18.690;2023-08-06T08:44:16;97290.20;;;17.50
71081;BMP180;58740;50.672;18.690;2023-08-06T08:46:47;97276.60;;;17.50
71081;BMP180;58740;50.672;18.690;2023-08-06T08:49:16;97252.20;;;17.50
71081;BMP180;58740;50.672;18.690;2023-08-06T08:51:45;97231.40;;;17.40
71081;BMP180;58740;50.672;18.690;2023-08-06T08:54:15;97229.80;;;17.40
71081;BMP180;58740;50.672;18.690;2023-08-06T08:56:43;97231.60;;;17.40
71081;BMP180;58740;50.672;18.690;2023-08-06T08:59:11;97220.00;;;17.30
71081;BMP180;58740;50.672;18.690;2023-08-06T09:01:39;97203.60;;;17.30
71081;BMP180;58740;50.672;18.690;2023-08-06T09:04:09;97214.60;;;17.30
71081;BMP180;58740;50.672;18.690;2023-08-06T09:06:40;97217.40;;;17.24
71081;BMP180;58740;50.672;18.690;2023-08-06T09:09:15;97204.80;;;17.20
71081;BMP180;58740;50.672;18.690;2023-08-06T09:11:44;97208.00;;;17.20
71081;BMP180;58740;50.672;18.690;2023-08-06T09:14:12;97198.60;;;17.22
71081;BMP180;58740;50.672;18.690;2023-08-06T09:16:40;97180.00;;;17.30
71081;BMP180;58740;50.672;18.690;2023-08-06T09:19:13;97183.00;;;17.30
71081;BMP180;58740;50.672;18.690;2023-08-06T09:21:45;97185.40;;;17.30
71081;BMP180;58740;50.672;18.690;2023-08-06T09:24:16;97198.80;;;17.30
71081;BMP180;58740;50.672;18.690;2023-08-06T09:26:45;97211.40;;;17.30
71081;BMP180;58740;50.672;18.690;2023-08-06T09:29:12;97211.20;;;17.30
71081;BMP180;58740;50.672;18.690;2023-08-06T09:31:46;97210.00;;;17.30
71081;BMP180;58740;50.672;18.690;2023-08-06T09:34:23;97206.00;;;17.32
71081;BMP180;58740;50.672;18.690;2023-08-06T09:36:53;97204.00;;;17.40
71081;BMP180;58740;50.672;18.690;2023-08-06T09:39:27;97205.00;;;17.40
71081;BMP180;58740;50.672;18.690;2023-08-06T09:41:57;97210.40;;;17.40
71081;BMP180;58740;50.672;18.690;2023-08-06T09:44:28;97218.40;;;17.38
71081;BMP180;58740;50.672;18.690;2023-08-06T09:47:00;97232.00;;;17.30
71081;BMP180;58740;50.672;18.690;2023-08-06T09:49:41;97242.40;;;17.32
71081;BMP180;58740;50.672;18.690;2023-08-06T09:52:14;97231.60;;;17.30
71081;BMP180;58740;50.672;18.690;2023-08-06T09:54:43;97221.20;;;17.30
71081;BMP180;58740;50.672;18.690;2023-08-06T09:57:12;97207.00;;;17.30
71081;BMP180;58740;50.672;18.690;2023-08-06T09:59:42;97197.60;;;17.24
71081;BMP180;58740;50.672;18.690;2023-08-06T10:02:13;97186.60;;;17.20
71081;BMP180;58740;50.672;18.690;2023-08-06T10:04:44;97181.40;;;17.20
71081;BMP180;58740;50.672;18.690;2023-08-06T10:07:22;97182.20;;;17.20
71081;BMP180;58740;50.672;18.690;2023-08-06T10:09:51;97174.40;;;17.20
71081;BMP180;58740;50.672;18.690;2023-08-06T10:12:20;97181.20;;;17.12
71081;BMP180;58740;50.672;18.690;2023-08-06T10:14:51;97193.00;;;17.10
71081;BMP180;58740;50.672;18.690;2023-08-06T10:17:22;97206.80;;;17.12
71081;BMP180;58740;50.672;18.690;2023-08-06T10:19:56;97210.40;;;17.10
71081;BMP180;58740;50.672;18.690;2023-08-06T10:22:23;97200.60;;;17.10
71081;BMP180;58740;50.672;18.690;2023-08-06T10:24:56;97197.40;;;17.08
71081;BMP180;58740;50.672;18.690;2023-08-06T10:27:32;97196.20;;;17.00
71081;BMP180;58740;50.672;18.690;2023-08-06T10:30:23;97196.60;;;17.08
71081;BMP180;58740;50.672;18.690;2023-08-06T10:32:59;97198.20;;;17.10
71081;BMP180;58740;50.672;18.690;2023-08-06T10:35:38;97200.40;;;17.10
71081;BMP180;58740;50.672;18.690;2023-08-06T10:38:15;97199.60;;;17.10
71081;BMP180;58740;50.672;18.690;2023-08-06T10:41:29;97194.20;;;17.10
71081;BMP180;58740;50.672;18.690;2023-08-06T10:44:11;97188.00;;;17.10
71081;BMP180;58740;50.672;18.690;2023-08-06T10:46:38;97190.00;;;17.10
71081;BMP180;58740;50.672;18.690;2023-08-06T10:49:07;97206.40;;;17.10
71081;BMP180;58740;50.672;18.690;2023-08-06T10:51:36;97220.20;;;17.10
71081;BMP180;58740;50.672;18.690;2023-08-06T10:54:04;97222.60;;;17.16
71081;BMP180;58740;50.672;18.690;2023-08-06T10:56:40;97224.60;;;17.10
71081;BMP180;58740;50.672;18.690;2023-08-06T10:59:08;97224.40;;;17.10
71081;BMP180;58740;50.672;18.690;2023-08-06T11:01:38;97226.20;;;17.18
71081;BMP180;58740;50.672;18.690;2023-08-06T11:04:07;97219.80;;;17.10
71081;BMP180;58740;50.672;18.690;2023-08-06T11:06:34;97196.00;;;17.10
71081;BMP180;58740;50.672;18.690;2023-08-06T11:09:02;97192.00;;;17.10
71081;BMP180;58740;50.672;18.690;2023-08-06T11:11:30;97199.80;;;17.10
71081;BMP180;58740;50.672;18.690;2023-08-06T11:13:57;97209.20;;;17.10
71081;BMP180;58740;50.672;18.690;2023-08-06T11:16:26;97215.80;;;17.10
71081;BMP180;58740;50.672;18.690;2023-08-06T11:18:55;97224.20;;;17.10
71081;BMP180;58740;50.672;18.690;2023-08-06T11:21:25;97224.00;;;17.10
71081;BMP180;58740;50.672;18.690;2023-08-06T11:23:53;97232.20;;;17.10
71081;BMP180;58740;50.672;18.690;2023-08-06T11:26:22;97237.00;;;17.10
71081;BMP180;58740;50.672;18.690;2023-08-06T11:28:51;97218.80;;;17.10
71081;BMP180;58740;50.672;18.690;2023-08-06T11:31:23;97201.00;;;17.10
71081;BMP180;58740;50.672;18.690;2023-08-06T11:33:53;97201.80;;;17.10
71081;BMP180;58740;50.672;18.690;2023-08-06T11:36:39;97207.40;;;17.10
71081;BMP180;58740;50.672;18.690;2023-08-06T11:39:08;97217.80;;;17.00
71081;BMP180;58740;50.672;18.690;2023-08-06T11:41:37;97233.20;;;17.00
71081;BMP180;58740;50.672;18.690;2023-08-06T11:44:05;97247.80;;;17.00
71081;BMP180;58740;50.672;18.690;2023-08-06T11:46:53;97242.20;;;17.00
71081;BMP180;58740;50.672;18.690;2023-08-06T11:52:24;97227.00;;;17.00
71081;BMP180;58740;50.672;18.690;2023-08-06T11:55:08;97217.60;;;17.10
71081;BMP180;58740;50.672;18.690;2023-08-06T11:57:39;97222.60;;;17.10
71081;BMP180;58740;50.672;18.690;2023-08-06T12:00:13;97228.80;;;17.10
71081;BMP180;58740;50.672;18.690;2023-08-06T12:02:43;97229.00;;;17.10
71081;BMP180;58740;50.672;18.690;2023-08-06T12:05:15;97239.40;;;17.00
71081;BMP180;58740;50.672;18.690;2023-08-06T12:07:56;97238.40;;;17.00
71081;BMP180;58740;50.672;18.690;2023-08-06T12:10:26;97246.60;;;17.00
71081;BMP180;58740;50.672;18.690;2023-08-06T12:12:55;97244.00;;;17.00
71081;BMP180;58740;50.672;18.690;2023-08-06T12:15:23;97247.80;;;17.00
71081;BMP180;58740;50.672;18.690;2023-08-06T12:17:51;97250.00;;;17.00
71081;BMP180;58740;50.672;18.690;2023-08-06T12:20:19;97256.80;;;17.00
71081;BMP180;58740;50.672;18.690;2023-08-06T12:22:47;97267.80;;;17.00
71081;BMP180;58740;50.672;18.690;2023-08-06T12:25:15;97273.20;;;17.00
71081;BMP180;58740;50.672;18.690;2023-08-06T12:27:44;97273.60;;;17.00
71081;BMP180;58740;50.672;18.690;2023-08-06T12:30:13;97272.00;;;17.00
71081;BMP180;58740;50.672;18.690;2023-08-06T12:32:41;97272.40;;;17.06
71081;BMP180;58740;50.672;18.690;2023-08-06T12:35:08;97276.80;;;17.10
71081;BMP180;58740;50.672;18.690;2023-08-06T12:37:37;97278.20;;;17.10
71081;BMP180;58740;50.672;18.690;2023-08-06T12:40:06;97284.20;;;17.10
71081;BMP180;58740;50.672;18.690;2023-08-06T12:42:54;97281.20;;;17.18
71081;BMP180;58740;50.672;18.690;2023-08-06T12:45:22;97284.80;;;17.20
71081;BMP180;58740;50.672;18.690;2023-08-06T12:47:49;97292.60;;;17.20
71081;BMP180;58740;50.672;18.690;2023-08-06T12:50:18;97299.40;;;17.20
71081;BMP180;58740;50.672;18.690;2023-08-06T12:52:46;97307.20;;;17.28
71081;BMP180;58740;50.672;18.690;2023-08-06T12:55:13;97308.20;;;17.30
71081;BMP180;58740;50.672;18.690;2023-08-06T12:57:41;97311.20;;;17.30
71081;BMP180;58740;50.672;18.690;2023-08-06T13:00:12;97325.20;;;17.30
71081;BMP180;58740;50.672;18.690;2023-08-06T13:02:40;97331.60;;;17.30
71081;BMP180;58740;50.672;18.690;2023-08-06T13:05:08;97335.20;;;17.30
71081;BMP180;58740;50.672;18.690;2023-08-06T13:07:37;97327.40;;;17.30
71081;BMP180;58740;50.672;18.690;2023-08-06T13:10:05;97334.00;;;17.30
71081;BMP180;58740;50.672;18.690;2023-08-06T13:12:33;97331.60;;;17.30
71081;BMP180;58740;50.672;18.690;2023-08-06T13:15:01;97334.00;;;17.30
71081;BMP180;58740;50.672;18.690;2023-08-06T13:17:29;97334.00;;;17.30
71081;BMP180;58740;50.672;18.690;2023-08-06T13:19:57;97333.40;;;17.36
71081;BMP180;58740;50.672;18.690;2023-08-06T13:22:25;97334.60;;;17.40
71081;BMP180;58740;50.672;18.690;2023-08-06T13:24:52;97329.00;;;17.38
71081;BMP180;58740;50.672;18.690;2023-08-06T13:27:20;97334.40;;;17.36
71081;BMP180;58740;50.672;18.690;2023-08-06T13:29:48;97328.60;;;17.40
71081;BMP180;58740;50.672;18.690;2023-08-06T13:32:15;97320.20;;;17.40
71081;BMP180;58740;50.672;18.690;2023-08-06T13:34:43;97319.20;;;17.40
71081;BMP180;58740;50.672;18.690;2023-08-06T13:37:11;97326.80;;;17.40
71081;BMP180;58740;50.672;18.690;2023-08-06T13:39:38;97323.20;;;17.40
71081;BMP180;58740;50.672;18.690;2023-08-06T13:42:07;97320.00;;;17.40
71081;BMP180;58740;50.672;18.690;2023-08-06T13:44:35;97319.80;;;17.40
71081;BMP180;58740;50.672;18.690;2023-08-06T13:47:03;97317.20;;;17.48
71081;BMP180;58740;50.672;18.690;2023-08-06T13:49:31;97321.00;;;17.50
71081;BMP180;58740;50.672;18.690;2023-08-06T13:51:59;97316.00;;;17.50
71081;BMP180;58740;50.672;18.690;2023-08-06T13:54:46;97305.20;;;17.50
71081;BMP180;58740;50.672;18.690;2023-08-06T13:57:14;97301.80;;;17.60
71081;BMP180;58740;50.672;18.690;2023-08-06T13:59:41;97303.40;;;17.60
71081;BMP180;58740;50.672;18.690;2023-08-06T14:02:11;97302.80;;;17.60
71081;BMP180;58740;50.672;18.690;2023-08-06T14:04:39;97309.20;;;17.70
71081;BMP180;58740;50.672;18.690;2023-08-06T14:07:07;97309.20;;;17.70
71081;BMP180;58740;50.672;18.690;2023-08-06T14:09:35;97308.60;;;17.70
71081;BMP180;58740;50.672;18.690;2023-08-06T14:12:03;97320.20;;;17.70
71081;BMP180;58740;50.672;18.690;2023-08-06T14:14:31;97327.60;;;17.70